Time;durP1;ratioP1;P1;durP2;ratioP2;P2;SDS_P1;SDS_P2;PMS_P1;PMS_P2;Temp;Humidity;BMP_temperature;BMP_pressure;BME280_temperature;BME280_humidity;BME280_pressure;Samples;Min_cycle;Max_cycle;Signal;HPM_P1;HPM_P2
2021/12/22 08:20:40;;;;;;;15.63;11.73;;;;;;;;;;5902335;23;20347;-53
2021/12/22 08:23:06;;;;;;;12.60;8.85;;;;;;;;;;4988975;28;20430;-54
2021/12/22 08:25:32;;;;;;;10.93;8.30;;;;;;;;;;4991246;28;20989;-54
2021/12/22 08:27:58;;;;;;;11.13;8.10;;;;;;;;;;4990380;28;20378;-50
2021/12/22 08:30:24;;;;;;;11.32;8.27;;;;;;;;;;4988427;28;20415;-48
2021/12/22 08:32:50;;;;;;;10.68;8.15;;;;;;;;;;4992039;28;20390;-49
2021/12/22 08:35:20;;;;;;;10.00;8.23;;;;;;;;;;4981076;28;20477;-49
2021/12/22 08:40:31;;;;;;;10.05;7.32;;;;;;;;;;4992685;28;20461;-46
2021/12/22 08:42:57;;;;;;;8.45;6.90;;;;;;;;;;4990983;28;20378;-48
2021/12/22 08:45:23;;;;;;;8.00;6.50;;;;;;;;;;4992037;28;20397;-49
2021/12/22 08:47:49;;;;;;;8.15;6.53;;;;;;;;;;4989911;28;20398;-49
2021/12/22 08:50:19;;;;;;;8.02;6.10;;;;;;;;;;4992685;28;20375;-50
2021/12/22 08:52:45;;;;;;;8.60;6.30;;;;;;;;;;4991188;28;20469;-50
2021/12/22 08:55:12;;;;;;;9.50;7.75;;;;;;;;;;4990346;28;20394;-50
2021/12/22 08:57:38;;;;;;;14.48;10.63;;;;;;;;;;4985619;28;20390;-62
2021/12/22 09:00:09;;;;;;;11.55;9.05;;;;;;;;;;4980527;28;20398;-60
2021/12/22 09:02:35;;;;;;;12.82;9.43;;;;;;;;;;4989033;28;20820;-64
2021/12/22 09:05:02;;;;;;;12.70;9.48;;;;;;;;;;4980111;28;20402;-55
2021/12/22 09:07:28;;;;;;;12.38;9.20;;;;;;;;;;4991548;28;20387;-60
2021/12/22 09:09:54;;;;;;;11.82;8.43;;;;;;;;;;4993124;28;20789;-60
2021/12/22 09:12:20;;;;;;;10.35;8.38;;;;;;;;;;4999409;28;20518;-56
2021/12/22 09:14:46;;;;;;;10.98;8.23;;;;;;;;;;4997454;28;20390;-53
2021/12/22 09:17:12;;;;;;;12.13;8.02;;;;;;;;;;4997120;28;20390;-53
2021/12/22 09:19:38;;;;;;;10.10;7.50;;;;;;;;;;4992038;28;20390;-59
2021/12/22 09:22:05;;;;;;;9.43;7.57;;;;;;;;;;4998925;28;20474;-53
2021/12/22 09:24:31;;;;;;;10.20;7.30;;;;;;;;;;4990551;28;20486;-56
2021/12/22 09:26:57;;;;;;;10.05;7.78;;;;;;;;;;4995343;28;20913;-54
2021/12/22 09:29:26;;;;;;;16.40;12.07;;;;;;;;;;4998914;28;20383;-53
2021/12/22 09:31:52;;;;;;;16.15;11.93;;;;;;;;;;4991462;28;20420;-62
2021/12/22 09:34:18;;;;;;;17.35;11.85;;;;;;;;;;4999317;28;20883;-58
2021/12/22 09:36:45;;;;;;;14.82;11.27;;;;;;;;;;4987623;28;20398;-56
2021/12/22 09:39:11;;;;;;;14.63;10.70;;;;;;;;;;4989928;28;20476;-69
2021/12/22 09:41:37;;;;;;;13.57;10.30;;;;;;;;;;4991138;28;20395;-61
2021/12/22 09:44:04;;;;;;;14.90;10.48;;;;;;;;;;4991239;28;20890;-50
2021/12/22 09:46:31;;;;;;;11.80;9.67;;;;;;;;;;4990611;28;20497;-51
2021/12/22 09:49:07;;;;;;;12.30;9.48;;;;;;;;;;4991881;28;20537;-49
2021/12/22 09:54:04;;;;;;;15.25;11.30;;;;;;;;;;4991741;28;20373;-54
2021/12/22 09:56:30;;;;;;;14.50;10.77;;;;;;;;;;4990814;28;20997;-55
2021/12/22 09:58:56;;;;;;;16.15;10.85;;;;;;;;;;4983308;28;20392;-55
2021/12/22 10:01:25;;;;;;;15.07;10.32;;;;;;;;;;4989129;28;20403;-53
2021/12/22 10:03:52;;;;;;;13.23;9.80;;;;;;;;;;4988207;28;20390;-46
2021/12/22 10:06:18;;;;;;;13.15;9.30;;;;;;;;;;4990650;28;20456;-50
2021/12/22 10:08:52;;;;;;;17.75;9.68;;;;;;;;;;4992232;28;20378;-53
2021/12/22 10:11:18;;;;;;;12.25;8.60;;;;;;;;;;4990852;28;20496;-59
2021/12/22 10:13:44;;;;;;;11.00;8.15;;;;;;;;;;4983425;28;20394;-54
2021/12/22 10:16:16;;;;;;;11.27;8.25;;;;;;;;;;4990756;28;20418;-52
2021/12/22 10:18:43;;;;;;;9.40;7.72;;;;;;;;;;4989661;28;20782;-50
2021/12/22 10:21:11;;;;;;;10.50;7.70;;;;;;;;;;4989971;28;20411;-52
2021/12/22 10:23:41;;;;;;;10.57;7.18;;;;;;;;;;4990589;28;20395;-53
2021/12/22 10:26:08;;;;;;;9.07;7.10;;;;;;;;;;4989773;28;20473;-49
2021/12/22 10:28:57;;;;;;;9.77;6.82;;;;;;;;;;4990698;28;20408;-51
2021/12/22 10:31:40;;;;;;;9.40;7.47;;;;;;;;;;4971916;28;21005;-51
2021/12/22 10:34:10;;;;;;;10.80;7.70;;;;;;;;;;4987092;28;20403;-52
2021/12/22 10:36:47;;;;;;;9.70;7.47;;;;;;;;;;4989114;28;20394;-50
2021/12/22 10:39:27;;;;;;;9.85;7.63;;;;;;;;;;4977957;28;20406;-56
2021/12/22 10:41:53;;;;;;;9.85;7.78;;;;;;;;;;4991865;28;20382;-47
2021/12/22 10:44:20;;;;;;;9.60;7.53;;;;;;;;;;4990184;28;20429;-46
2021/12/22 10:46:47;;;;;;;10.68;7.70;;;;;;;;;;4990206;28;20445;-55
2021/12/22 10:49:17;;;;;;;10.45;8.35;;;;;;;;;;4989727;28;20394;-48
2021/12/22 10:51:46;;;;;;;10.13;7.75;;;;;;;;;;4992885;28;20444;-50
2021/12/22 10:54:16;;;;;;;10.73;7.97;;;;;;;;;;4991860;28;20440;-59
2021/12/22 10:56:46;;;;;;;9.82;7.78;;;;;;;;;;4992569;28;20827;-63
2021/12/22 10:59:20;;;;;;;11.93;7.80;;;;;;;;;;4993562;28;20470;-54
2021/12/22 11:02:13;;;;;;;10.87;8.03;;;;;;;;;;4992193;28;20442;-53
2021/12/22 11:04:45;;;;;;;16.58;12.85;;;;;;;;;;4990502;28;20493;-57
2021/12/22 11:07:16;;;;;;;21.60;16.43;;;;;;;;;;4983130;28;20391;-54
2021/12/22 11:09:42;;;;;;;21.55;16.48;;;;;;;;;;4996110;28;20798;-55
2021/12/22 11:12:08;;;;;;;22.53;17.60;;;;;;;;;;4993952;28;20460;-54
2021/12/22 11:14:38;;;;;;;22.80;17.50;;;;;;;;;;4992472;28;20471;-53
2021/12/22 11:17:11;;;;;;;24.10;18.70;;;;;;;;;;4985272;28;20839;-51
2021/12/22 11:19:48;;;;;;;21.30;16.20;;;;;;;;;;4979684;28;20402;-57
2021/12/22 11:22:15;;;;;;;18.05;13.82;;;;;;;;;;4980373;28;20793;-45
2021/12/22 11:24:52;;;;;;;18.47;13.83;;;;;;;;;;4992771;28;20405;-51
2021/12/22 11:27:22;;;;;;;22.08;16.20;;;;;;;;;;4992213;28;20413;-49
2021/12/22 11:29:51;;;;;;;21.47;17.13;;;;;;;;;;4996305;28;20399;-47
2021/12/22 11:32:19;;;;;;;22.55;18.20;;;;;;;;;;4987607;28;20506;-50
2021/12/22 11:34:50;;;;;;;22.10;17.52;;;;;;;;;;4990507;28;20398;-52
2021/12/22 11:37:17;;;;;;;23.10;17.85;;;;;;;;;;4992943;28;20689;-52
2021/12/22 11:39:45;;;;;;;21.48;17.38;;;;;;;;;;4990829;28;20489;-54
2021/12/22 11:42:13;;;;;;;23.17;18.10;;;;;;;;;;4992228;28;20760;-51
2021/12/22 11:44:40;;;;;;;24.25;18.42;;;;;;;;;;4997812;28;20393;-48
2021/12/22 11:47:09;;;;;;;23.45;17.98;;;;;;;;;;4999826;28;20396;-49
2021/12/22 11:49:38;;;;;;;23.63;19.30;;;;;;;;;;5000366;28;20518;-50
2021/12/22 11:52:24;;;;;;;22.67;18.10;;;;;;;;;;4992918;28;20422;-50
2021/12/22 11:55:11;;;;;;;23.13;18.07;;;;;;;;;;4992371;28;20480;-51
2021/12/22 11:57:37;;;;;;;24.00;18.87;;;;;;;;;;4993261;28;20895;-49
2021/12/22 12:00:21;;;;;;;23.98;18.58;;;;;;;;;;4993501;28;20822;-47
2021/12/22 12:02:48;;;;;;;22.90;18.23;;;;;;;;;;4993322;28;20383;-47
2021/12/22 12:05:21;;;;;;;23.08;18.52;;;;;;;;;;4993353;28;20379;-53
2021/12/22 12:07:49;;;;;;;23.92;18.70;;;;;;;;;;4986185;28;20406;-52
2021/12/22 12:10:34;;;;;;;24.17;18.42;;;;;;;;;;4991433;28;20435;-47
2021/12/22 12:13:07;;;;;;;22.03;17.27;;;;;;;;;;4989479;28;20953;-53
2021/12/22 12:15:59;;;;;;;22.53;16.90;;;;;;;;;;4992506;28;20466;-60
2021/12/22 12:21:59;;;;;;;23.00;14.48;;;;;;;;;;4966028;28;20423;-60
2021/12/22 12:24:31;;;;;;;19.27;13.50;;;;;;;;;;4992831;28;20886;-57
2021/12/22 12:27:17;;;;;;;19.35;12.85;;;;;;;;;;4993096;28;20394;-59
2021/12/22 12:30:02;;;;;;;15.97;12.03;;;;;;;;;;4985095;28;20911;-59
2021/12/22 12:32:40;;;;;;;15.20;11.15;;;;;;;;;;4990646;28;20433;-52
2021/12/22 12:38:02;;;;;;;14.40;10.70;;;;;;;;;;4992350;28;20410;-54
2021/12/22 12:40:47;;;;;;;13.57;10.13;;;;;;;;;;4982744;28;20438;-59
2021/12/22 12:43:13;;;;;;;13.23;9.60;;;;;;;;;;4992505;28;20390;-59
2021/12/22 12:45:42;;;;;;;10.70;9.20;;;;;;;;;;4990657;28;20996;-55
2021/12/22 12:48:28;;;;;;;12.27;9.13;;;;;;;;;;4989797;28;20505;-53
2021/12/22 12:51:13;;;;;;;10.38;8.57;;;;;;;;;;4990357;28;20417;-58
2021/12/22 12:53:49;;;;;;;11.32;8.38;;;;;;;;;;4991372;28;20401;-56
2021/12/22 12:56:16;;;;;;;10.52;8.05;;;;;;;;;;4977301;28;20375;-54
2021/12/22 12:58:56;;;;;;;12.23;8.07;;;;;;;;;;4991154;28;20383;-51
2021/12/22 13:01:41;;;;;;;13.25;7.95;;;;;;;;;;4991051;28;20401;-56
2021/12/22 13:04:23;;;;;;;10.70;7.55;;;;;;;;;;4991880;28;20374;-54
2021/12/22 13:06:50;;;;;;;10.57;7.82;;;;;;;;;;4990676;28;20395;-54
2021/12/22 13:09:28;;;;;;;9.15;6.97;;;;;;;;;;4991246;28;20437;-59
2021/12/22 13:12:03;;;;;;;8.88;6.65;;;;;;;;;;4981765;28;20418;-53
2021/12/22 13:17:15;;;;;;;7.90;6.45;;;;;;;;;;4991877;28;20378;-55
2021/12/22 13:19:45;;;;;;;8.13;6.20;;;;;;;;;;4992515;28;20371;-52
2021/12/22 13:22:21;;;;;;;8.87;6.33;;;;;;;;;;4991720;28;20429;-53
2021/12/22 13:24:47;;;;;;;8.45;5.68;;;;;;;;;;4979156;28;20387;-55
2021/12/22 13:27:26;;;;;;;8.00;5.68;;;;;;;;;;4992365;28;20375;-52
2021/12/22 13:30:09;;;;;;;7.78;5.68;;;;;;;;;;4977586;28;20910;-55
2021/12/22 13:32:36;;;;;;;7.85;5.50;;;;;;;;;;4990293;28;20447;-50
2021/12/22 13:35:03;;;;;;;6.88;5.47;;;;;;;;;;4991946;28;20426;-50
2021/12/22 13:37:30;;;;;;;9.52;6.45;;;;;;;;;;4980263;28;20431;-51
2021/12/22 13:39:58;;;;;;;7.50;6.05;;;;;;;;;;4984728;28;20488;-53
2021/12/22 13:42:24;;;;;;;8.98;6.85;;;;;;;;;;4989645;28;20379;-54
2021/12/22 13:44:50;;;;;;;8.00;6.32;;;;;;;;;;4989952;28;20382;-50
2021/12/22 13:47:16;;;;;;;7.47;6.13;;;;;;;;;;4983933;28;20458;-50
2021/12/22 13:49:45;;;;;;;7.70;5.97;;;;;;;;;;4990071;28;21041;-49
2021/12/22 13:52:11;;;;;;;7.90;5.97;;;;;;;;;;4988345;28;20422;-57
2021/12/22 13:54:37;;;;;;;7.90;6.13;;;;;;;;;;4989700;28;20445;-70
2021/12/22 13:57:05;;;;;;;8.00;6.10;;;;;;;;;;4988484;28;20395;-50
2021/12/22 13:59:32;;;;;;;7.85;6.18;;;;;;;;;;4988355;28;20481;-54
2021/12/22 14:01:59;;;;;;;8.25;5.93;;;;;;;;;;4988748;28;20425;-53
2021/12/22 14:04:29;;;;;;;7.10;5.80;;;;;;;;;;4988273;28;20421;-50
2021/12/22 14:06:56;;;;;;;7.10;5.83;;;;;;;;;;4988914;28;20436;-53
2021/12/22 14:09:27;;;;;;;7.38;5.78;;;;;;;;;;4989643;28;20930;-53
